KOVL

Olivia Regional Airport

Olivia, Minnesota, USA
METAR KOVL 181435Z AUTO 15003KT 10SM CLR 21/19 A3009 RMK AO2
Observed Flight Rules
Aug-18 @ 14:35 UTC (18 minutes ago) Visual Flight Rules
Wind Visibility Clouds
150° at 3 knots 10 miles
  • Clear skies
Temperatures Readings
Current 21°C / 70°F
Dewpoint 19°C / 66°F
Humidity 88%
Altimeter 30.09" Hg
Pressure 1019 hPa
Elevation 328
METAR KOVL 181435Z AUTO 15003KT 10SM CLR 21/19 A3009 RMK AO2
Observed Flight Rules
Aug-18 @ 14:35 UTC
(18 minutes ago)
VFR
Wind Visibility
150° at 3 knots 10 miles
Clouds
  • Clear skies
Temperature Dewpoint
21°C / 70°F 19°C / 66°F
Humidity Altimeter Pressure
88% 30.09" Hg 1019 hPa